createdAt,value
2022-12-13T00:01:45.326Z,41.50
2022-12-13T00:06:41.741Z,41.17
2022-12-13T00:11:38.071Z,39.42
2022-12-13T00:16:34.324Z,39.25
2022-12-13T00:21:32.465Z,36.72
2022-12-13T00:26:30.628Z,35.42
2022-12-13T00:31:56.825Z,35.47
2022-12-13T00:36:43.350Z,32.78
2022-12-13T00:41:40.283Z,34.97
2022-12-13T00:46:36.479Z,35.08
2022-12-13T00:51:33.547Z,34.53
2022-12-13T00:56:30.853Z,35.05
2022-12-13T01:01:31.082Z,31.50
2022-12-13T01:06:36.362Z,34.08
2022-12-13T01:11:32.710Z,34.13
2022-12-13T01:16:29.153Z,36.38
2022-12-13T01:21:25.636Z,33.15
2022-12-13T01:26:21.900Z,34.75
2022-12-13T01:31:19.469Z,35.60
2022-12-13T01:36:17.241Z,38.30
2022-12-13T01:41:17.708Z,38.97
2022-12-13T01:46:15.892Z,36.72
2022-12-13T01:51:14.330Z,35.65
2022-12-13T01:56:12.886Z,39.15
2022-12-13T02:01:09.172Z,35.40
2022-12-13T02:06:08.570Z,35.17
2022-12-13T02:11:05.298Z,35.03
2022-12-13T02:16:04.669Z,36.65
2022-12-13T02:21:06.803Z,36.30
2022-12-13T02:26:21.483Z,35.92
2022-12-13T02:31:30.187Z,34.38
2022-12-13T02:36:45.422Z,33.92
2022-12-13T02:41:47.105Z,34.50
2022-12-13T02:46:49.019Z,35.28
2022-12-13T02:51:45.562Z,34.63
2022-12-13T02:56:41.820Z,35.58
2022-12-13T03:01:40.225Z,36.08
2022-12-13T03:06:46.425Z,32.95
2022-12-13T03:12:05.695Z,32.83
2022-12-13T03:17:02.759Z,33.22
2022-12-13T03:21:59.015Z,32.67
2022-12-13T03:26:55.255Z,33.13
2022-12-13T03:31:52.386Z,31.55
2022-12-13T03:36:48.687Z,34.42
2022-12-13T03:41:44.982Z,34.65
2022-12-13T03:46:41.331Z,34.03
2022-12-13T03:51:37.579Z,33.92
2022-12-13T03:56:33.794Z,32.55
2022-12-13T04:01:30.061Z,34.10
2022-12-13T04:06:31.266Z,32.10
2022-12-13T04:11:47.613Z,33.60
2022-12-13T04:16:44.054Z,31.42
2022-12-13T04:21:40.603Z,33.42
2022-12-13T04:26:36.920Z,33.95
2022-12-13T04:31:33.207Z,34.33
2022-12-13T04:36:31.622Z,33.42
2022-12-13T04:41:34.503Z,33.35
2022-12-13T04:46:31.474Z,35.00
2022-12-13T04:51:28.014Z,31.20
2022-12-13T04:56:24.295Z,30.98
2022-12-13T05:01:20.649Z,32.67
2022-12-13T05:06:27.527Z,30.63
2022-12-13T05:11:24.556Z,30.35
2022-12-13T05:16:24.796Z,30.77
2022-12-13T05:21:21.254Z,32.35
2022-12-13T05:26:17.594Z,30.05
2022-12-13T05:31:23.079Z,31.55
2022-12-13T05:36:22.464Z,32.13
2022-12-13T05:41:20.657Z,30.88
2022-12-13T05:46:16.986Z,32.15
2022-12-13T05:51:13.292Z,32.10
2022-12-13T05:56:10.880Z,31.38
2022-12-13T06:01:08.418Z,30.45
2022-12-13T06:06:08.495Z,32.05
2022-12-13T06:11:10.742Z,29.30
2022-12-13T06:16:08.537Z,30.30
2022-12-13T06:21:19.795Z,30.63
2022-12-13T06:26:16.093Z,29.58
2022-12-13T06:31:12.433Z,31.45
2022-12-13T06:36:09.267Z,30.42
2022-12-13T06:41:06.226Z,30.75
2022-12-13T06:46:03.944Z,30.45
2022-12-13T06:51:06.614Z,31.73
2022-12-13T06:56:10.411Z,30.75
2022-12-13T07:01:14.813Z,29.92
2022-12-13T07:06:11.502Z,33.03
2022-12-13T07:11:07.773Z,31.35
2022-12-13T07:16:04.041Z,31.17
2022-12-13T07:21:00.336Z,32.65
2022-12-13T07:25:56.523Z,31.58
2022-12-13T07:30:52.847Z,29.73
2022-12-13T07:35:49.160Z,29.13
2022-12-13T07:40:51.736Z,29.25
2022-12-13T07:45:47.946Z,31.10
2022-12-13T07:50:44.230Z,30.45
2022-12-13T07:55:40.506Z,29.55
2022-12-13T08:00:37.545Z,28.33
2022-12-13T08:05:38.182Z,29.75
2022-12-13T08:10:35.520Z,28.43
2022-12-13T08:15:31.750Z,30.58
2022-12-13T08:20:28.041Z,27.83
2022-12-13T08:25:24.440Z,28.58
2022-12-13T08:30:22.808Z,26.80
2022-12-13T08:35:19.556Z,29.48
2022-12-13T08:40:15.923Z,28.00
2022-12-13T08:45:12.142Z,28.20
2022-12-13T08:50:08.442Z,27.40
2022-12-13T08:55:04.897Z,27.83
2022-12-13T09:00:01.280Z,29.75
2022-12-13T09:04:57.537Z,27.25
2022-12-13T09:09:54.697Z,28.77
2022-12-13T09:14:51.567Z,28.48
2022-12-13T09:19:47.908Z,28.50
2022-12-13T09:24:44.319Z,28.23
2022-12-13T09:29:47.847Z,28.15
2022-12-13T09:34:45.931Z,27.23
2022-12-13T09:39:42.692Z,27.25
2022-12-13T09:44:46.506Z,26.73
2022-12-13T09:49:53.150Z,25.67
2022-12-13T09:54:51.779Z,25.08
2022-12-13T09:59:48.065Z,24.77
2022-12-13T10:04:44.826Z,23.63
2022-12-13T10:09:41.391Z,22.90
2022-12-13T10:14:40.323Z,23.95
2022-12-13T10:19:39.047Z,22.75
2022-12-13T10:24:50.646Z,23.55
2022-12-13T10:30:04.071Z,23.02
2022-12-13T10:35:00.929Z,22.25
2022-12-13T10:39:58.151Z,22.50
2022-12-13T10:45:14.037Z,22.38
2022-12-13T10:50:22.981Z,23.92
2022-12-13T10:55:40.413Z,23.02
2022-12-13T11:00:38.840Z,24.23
2022-12-13T11:05:36.064Z,22.77
2022-12-13T11:10:32.312Z,22.48
2022-12-13T11:15:30.853Z,20.67
2022-12-13T11:20:28.926Z,21.60
2022-12-13T11:25:35.754Z,22.80
2022-12-13T11:30:49.495Z,23.58
2022-12-13T11:36:04.375Z,21.23
2022-12-13T11:41:31.437Z,22.02
2022-12-13T11:46:38.495Z,21.73
2022-12-13T11:51:38.862Z,21.05
2022-12-13T11:56:40.250Z,21.25
2022-12-13T12:01:43.003Z,22.88
2022-12-13T12:06:42.419Z,23.15
2022-12-13T12:11:52.424Z,23.30
2022-12-13T12:16:53.018Z,23.00
2022-12-13T12:22:13.593Z,22.35
2022-12-13T12:27:25.266Z,21.08
2022-12-13T12:32:33.807Z,19.90
2022-12-13T12:37:37.341Z,21.23
2022-12-13T12:43:16.445Z,20.85
2022-12-13T12:53:35.275Z,20.50
2022-12-13T12:58:37.677Z,21.23
2022-12-13T13:03:36.310Z,20.33
2022-12-13T13:08:50.204Z,20.85
2022-12-13T13:13:57.398Z,21.65
2022-12-13T13:18:58.953Z,21.85
2022-12-13T13:24:01.114Z,22.38
2022-12-13T13:29:15.893Z,22.33
2022-12-13T13:34:25.573Z,20.75
2022-12-13T13:39:27.903Z,22.33
2022-12-13T13:44:34.460Z,21.80
2022-12-13T13:49:31.665Z,21.92
2022-12-13T13:54:37.240Z,21.98
2022-12-13T13:59:52.255Z,22.40
2022-12-13T14:05:14.847Z,22.73
2022-12-13T14:10:37.016Z,23.40
2022-12-13T14:15:49.172Z,21.88
2022-12-13T14:20:54.868Z,22.42
2022-12-13T14:25:57.951Z,24.02
2022-12-13T14:30:57.696Z,23.33
2022-12-13T14:35:55.486Z,21.88
2022-12-13T14:40:54.121Z,23.08
2022-12-13T14:45:57.572Z,22.35
2022-12-13T14:50:54.299Z,24.15
2022-12-13T14:56:07.730Z,23.80
2022-12-13T15:01:05.319Z,24.38
2022-12-13T15:06:02.288Z,23.67
2022-12-13T15:10:59.633Z,25.27
2022-12-13T15:16:00.558Z,27.17
2022-12-13T15:20:57.579Z,27.50
2022-12-13T15:25:58.553Z,28.20
2022-12-13T15:30:56.884Z,28.73
2022-12-13T15:36:02.402Z,30.02
2022-12-13T15:41:00.631Z,29.10
2022-12-13T15:45:57.303Z,32.83
2022-12-13T15:51:07.075Z,32.80
2022-12-13T15:56:23.306Z,35.17
2022-12-13T16:01:24.856Z,33.92
2022-12-13T16:06:22.291Z,29.27
2022-12-13T16:11:29.822Z,37.20
2022-12-13T16:16:27.989Z,36.38
2022-12-13T16:21:25.448Z,38.13
2022-12-13T16:26:26.179Z,36.63
2022-12-13T16:31:23.476Z,37.75
2022-12-13T16:36:20.082Z,41.17
2022-12-13T16:41:18.939Z,39.00
2022-12-13T16:47:17.431Z,40.35
2022-12-13T16:51:31.590Z,40.45
2022-12-13T16:56:28.327Z,40.85
2022-12-13T17:01:24.875Z,43.53
2022-12-13T17:06:23.626Z,40.83
2022-12-13T17:11:20.194Z,41.13
2022-12-13T17:16:16.515Z,43.13
2022-12-13T17:21:12.810Z,43.28
2022-12-13T17:26:10.204Z,42.58
2022-12-13T17:31:12.156Z,41.97
2022-12-13T17:36:09.582Z,45.92
2022-12-13T17:41:05.813Z,42.97
2022-12-13T17:46:03.799Z,44.55
2022-12-13T17:51:00.242Z,46.10
2022-12-13T17:56:00.590Z,44.97
2022-12-13T18:00:57.475Z,43.42
2022-12-13T18:05:59.799Z,43.05
2022-12-13T18:16:13.720Z,44.88
2022-12-13T18:21:13.867Z,46.70
2022-12-13T18:26:14.498Z,45.70
2022-12-13T18:31:12.498Z,43.83
2022-12-13T18:36:09.408Z,44.53
2022-12-13T18:41:09.045Z,45.45
2022-12-13T18:46:05.983Z,46.53
2022-12-13T18:51:03.848Z,46.33
2022-12-13T18:56:04.620Z,46.25
2022-12-13T19:01:01.629Z,46.72
2022-12-13T19:05:58.843Z,43.85
2022-12-13T19:10:56.669Z,45.35
2022-12-13T19:15:53.805Z,44.65
2022-12-13T19:20:51.141Z,44.67
2022-12-13T19:25:48.779Z,44.72
2022-12-13T19:30:46.299Z,47.60
2022-12-13T19:35:46.439Z,44.67
2022-12-13T19:40:42.725Z,42.58
2022-12-13T19:45:38.954Z,43.00
2022-12-13T19:50:35.598Z,43.40
2022-12-13T19:55:32.922Z,43.78
2022-12-13T20:00:29.392Z,43.60
2022-12-13T20:05:25.909Z,43.05
2022-12-13T20:10:22.100Z,42.85
2022-12-13T20:15:18.392Z,42.78
2022-12-13T20:20:14.819Z,41.72
2022-12-13T20:25:11.530Z,41.67
2022-12-13T20:30:08.341Z,40.50
2022-12-13T20:35:04.844Z,43.55
2022-12-13T20:40:01.059Z,40.05
2022-12-13T20:44:59.505Z,42.47
2022-12-13T20:49:55.784Z,42.13
2022-12-13T20:54:51.987Z,40.95
2022-12-13T20:59:48.202Z,39.33
2022-12-13T21:04:45.650Z,40.70
2022-12-13T21:09:41.881Z,41.05
2022-12-13T21:14:38.118Z,39.38
2022-12-13T21:19:39.495Z,39.88
2022-12-13T21:24:36.288Z,41.72
2022-12-13T21:29:32.468Z,36.70
2022-12-13T21:34:29.078Z,38.22
2022-12-13T21:39:27.942Z,38.78
2022-12-13T21:44:24.524Z,40.22
2022-12-13T21:49:21.050Z,41.30
2022-12-13T21:54:17.662Z,38.42
2022-12-13T21:59:15.544Z,37.88
2022-12-13T22:04:12.370Z,37.97
2022-12-13T22:09:08.642Z,35.35
2022-12-13T22:14:05.208Z,37.25
2022-12-13T22:19:01.434Z,37.00
2022-12-13T22:23:57.835Z,37.40
2022-12-13T22:28:54.075Z,36.78
2022-12-13T22:33:50.354Z,36.40
2022-12-13T22:38:47.231Z,36.65
2022-12-13T22:43:43.944Z,35.50
2022-12-13T22:48:40.480Z,34.92
2022-12-13T22:53:36.694Z,34.95
2022-12-13T22:58:33.141Z,35.13
2022-12-13T23:03:29.550Z,35.25
2022-12-13T23:08:26.077Z,34.50
2022-12-13T23:13:22.686Z,35.25
2022-12-13T23:18:18.953Z,34.33
2022-12-13T23:23:15.131Z,32.85
2022-12-13T23:28:11.361Z,33.15
2022-12-13T23:33:07.739Z,33.95
2022-12-13T23:38:03.974Z,31.75
2022-12-13T23:43:00.294Z,30.67
2022-12-13T23:47:56.566Z,30.17
2022-12-13T23:52:53.274Z,30.77
2022-12-13T23:57:49.993Z,30.83
